Atterbury, Indiana
Current Conditions -  °F | °C
As of 9:53 PM on Monday 22 Dec 2014 (Local Time) from KGEZ Reporting Station
Overcast Overcast  
Wind Chill: 43°   Ceiling: 3000
Heat Index: 48°   Visibility: 10mi
Dew Point: 40°   Wind: 13mph
Humidity: 74%   Direction: 120°ESE
Pressure: 29.68"   Gusts: NA
Location:  39.3642°N, 85.9645°W
Report Text: KGEZ 230253Z AUTO 12011KT 10SM OVC030 09/04 A2968 RMK AO2 SLP055 60000 T00890044 56013
Loading
Personal Weather Stations






























Interactive Weather Map New forecast layout! Learn more

10-Day Weather Forecast

Advertisements
Track Severe Weather on mobile